Time;durP1;ratioP1;P1;durP2;ratioP2;P2;SDS_P1;SDS_P2;PMS_P1;PMS_P2;Temp;Humidity;BMP_temperature;BMP_pressure;BME280_temperature;BME280_humidity;BME280_pressure;Samples;Min_cycle;Max_cycle;Signal;HPM_P1;HPM_P2
2023/04/14 00:01:44;;;;;;;4.68;2.28;;;5.50;56.00;;;;;;5022957;28;20097;-84
2023/04/14 00:04:10;;;;;;;11.18;2.50;;;5.50;56.00;;;;;;5008145;28;20104;-85
2023/04/14 00:06:36;;;;;;;8.88;2.90;;;5.40;56.20;;;;;;4989250;28;20030;-86
2023/04/14 00:09:03;;;;;;;4.60;2.97;;;5.40;56.40;;;;;;4994312;28;20029;-86
2023/04/14 00:11:29;;;;;;;3.40;2.95;;;5.40;56.60;;;;;;4996010;28;20106;-86
2023/04/14 00:13:56;;;;;;;6.05;3.10;;;5.40;56.60;;;;;;5008223;28;20380;-85
2023/04/14 00:16:22;;;;;;;4.50;2.90;;;5.30;56.60;;;;;;5026399;28;20380;-84
2023/04/14 00:18:48;;;;;;;3.80;2.97;;;5.30;56.80;;;;;;5016838;28;20022;-82
2023/04/14 00:21:14;;;;;;;3.33;2.33;;;5.30;57.10;;;;;;5048069;28;20022;-83
2023/04/14 00:23:40;;;;;;;3.40;2.40;;;5.20;57.00;;;;;;5017456;28;20028;-84
2023/04/14 00:26:06;;;;;;;2.97;2.17;;;5.20;57.10;;;;;;5014775;28;20022;-83
2023/04/14 00:28:32;;;;;;;3.80;1.95;;;5.10;57.20;;;;;;5003364;28;20495;-83
2023/04/14 00:30:57;;;;;;;5.88;2.80;;;5.10;57.30;;;;;;5016808;28;20044;-84
2023/04/14 00:33:23;;;;;;;5.03;3.25;;;5.00;57.30;;;;;;5018998;28;20026;-85
2023/04/14 00:35:50;;;;;;;6.32;2.85;;;4.90;57.40;;;;;;5014776;28;20030;-84
2023/04/14 00:38:16;;;;;;;5.82;2.83;;;4.90;57.70;;;;;;5011712;28;20030;-83
2023/04/14 00:40:42;;;;;;;5.43;2.78;;;4.80;57.60;;;;;;4999845;28;20042;-84
2023/04/14 00:43:08;;;;;;;4.60;3.13;;;4.80;58.10;;;;;;4984597;28;20023;-84
2023/04/14 00:45:42;;;;;;;8.02;3.40;;;4.80;57.80;;;;;;5004804;28;20073;-85
2023/04/14 00:48:08;;;;;;;11.10;3.30;;;4.80;57.90;;;;;;5003117;28;20077;-83
2023/04/14 00:50:34;;;;;;;4.40;3.00;;;4.80;57.90;;;;;;4980564;28;20126;-83
2023/04/14 00:53:01;;;;;;;6.00;3.63;;;4.70;58.00;;;;;;5015276;28;20026;-85
2023/04/14 00:55:26;;;;;;;3.70;2.20;;;4.70;58.10;;;;;;5003041;28;20027;-84
2023/04/14 00:57:56;;;;;;;4.47;3.05;;;4.60;58.00;;;;;;5002524;28;20102;-84
2023/04/14 01:00:22;;;;;;;7.80;3.50;;;4.60;58.30;;;;;;4995965;28;20029;-82
2023/04/14 01:02:48;;;;;;;4.68;3.00;;;4.50;58.00;;;;;;4994763;28;20034;-83
2023/04/14 01:05:14;;;;;;;6.10;3.53;;;4.50;58.20;;;;;;4985489;28;20475;-83
2023/04/14 01:07:40;;;;;;;6.25;3.20;;;4.40;58.40;;;;;;4982012;28;20075;-84
2023/04/14 01:10:07;;;;;;;7.78;3.97;;;4.30;58.40;;;;;;5004741;28;20399;-84
2023/04/14 01:12:35;;;;;;;5.38;3.65;;;4.30;58.70;;;;;;4999446;28;20117;-84
2023/04/14 01:15:20;;;;;;;8.30;3.40;;;4.30;59.50;;;;;;4997584;28;20388;-83
2023/04/14 01:18:14;;;;;;;3.63;2.85;;;4.30;58.70;;;;;;4998350;28;20098;-84
2023/04/14 01:20:58;;;;;;;5.43;3.00;;;4.20;58.80;;;;;;5002430;28;20480;-83
2023/04/14 01:23:33;;;;;;;3.72;2.83;;;4.20;59.10;;;;;;4997952;28;20018;-84
2023/04/14 01:26:18;;;;;;;6.43;2.97;;;4.10;59.10;;;;;;4984618;28;20025;-82
2023/04/14 01:29:05;;;;;;;5.07;3.30;;;4.00;59.20;;;;;;5000131;28;20592;-83
2023/04/14 01:31:46;;;;;;;6.40;3.22;;;4.00;59.30;;;;;;4998298;28;20547;-83
2023/04/14 01:34:33;;;;;;;5.95;3.05;;;4.00;59.20;;;;;;5013958;28;20017;-82
2023/04/14 01:37:11;;;;;;;5.45;3.67;;;3.90;59.20;;;;;;5023783;28;20042;-82
2023/04/14 01:39:38;;;;;;;;;;;3.90;59.00;;;;;;5002286;28;20027;-83
2023/04/14 01:42:10;;;;;;;5.20;3.78;;;3.90;59.00;;;;;;5003779;28;19905;-82
2023/04/14 01:44:39;;;;;;;5.75;3.63;;;3.80;59.00;;;;;;5003150;28;20045;-83
2023/04/14 01:47:08;;;;;;;6.90;4.32;;;3.80;59.00;;;;;;5014294;28;20031;-83
2023/04/14 01:49:38;;;;;;;6.50;3.83;;;3.80;59.10;;;;;;5007160;28;20041;-84
2023/04/14 01:52:08;;;;;;;4.95;3.10;;;3.80;59.00;;;;;;5008477;28;20105;-83
2023/04/14 01:54:37;;;;;;;3.25;2.75;;;3.80;58.90;;;;;;4996452;28;20069;-85
2023/04/14 01:57:05;;;;;;;4.10;3.70;;;3.80;59.00;;;;;;5017875;28;20033;-85
2023/04/14 01:59:33;;;;;;;5.60;3.10;;;3.80;59.20;;;;;;5005541;28;20105;-85
2023/04/14 02:02:02;;;;;;;5.88;4.13;;;3.70;59.10;;;;;;5009871;28;20066;-85
2023/04/14 02:04:29;;;;;;;6.07;4.47;;;3.70;59.10;;;;;;4987511;28;20172;-85
2023/04/14 02:06:58;;;;;;;7.28;3.78;;;3.70;59.00;;;;;;4984980;28;20026;-85
2023/04/14 02:09:26;;;;;;;12.40;4.43;;;3.60;58.90;;;;;;5001539;28;20561;-85
2023/04/14 02:11:54;;;;;;;6.28;3.80;;;3.60;59.70;;;;;;4993994;28;20022;-84
2023/04/14 02:14:22;;;;;;;4.97;3.78;;;3.50;59.20;;;;;;5007073;28;20073;-83
2023/04/14 02:16:51;;;;;;;5.00;3.80;;;3.50;59.30;;;;;;5007483;28;20041;-84
2023/04/14 02:19:19;;;;;;;6.97;3.53;;;3.50;59.20;;;;;;5003649;28;20033;-83
2023/04/14 02:21:48;;;;;;;5.07;4.15;;;3.40;59.40;;;;;;5017398;28;20104;-85
2023/04/14 02:24:14;;;;;;;6.22;3.00;;;3.40;59.50;;;;;;5013150;28;20022;-83
2023/04/14 02:26:49;;;;;;;5.28;4.00;;;3.40;59.50;;;;;;5017658;28;20025;-80
2023/04/14 02:29:19;;;;;;;3.55;3.08;;;3.30;59.60;;;;;;5007215;28;20065;-82
2023/04/14 02:31:57;;;;;;;7.68;3.58;;;3.30;59.70;;;;;;5000616;28;20072;-83
2023/04/14 02:34:27;;;;;;;4.53;2.80;;;3.20;60.00;;;;;;4996462;28;20030;-84
2023/04/14 02:36:56;;;;;;;4.05;3.08;;;3.20;60.00;;;;;;5010435;28;20104;-83
2023/04/14 02:39:44;;;;;;;4.40;3.65;;;3.10;60.30;;;;;;5002959;28;20058;-82
2023/04/14 02:42:17;;;;;;;5.65;4.13;;;3.00;61.20;;;;;;4989041;28;20026;-82
2023/04/14 02:44:48;;;;;;;4.63;3.13;;;3.00;60.60;;;;;;4998206;28;20026;-84
2023/04/14 02:47:36;;;;;;;4.47;3.08;;;2.90;60.60;;;;;;5006323;28;20081;-84
2023/04/14 02:50:04;;;;;;;11.68;3.67;;;2.90;60.80;;;;;;5014443;28;19999;-83
2023/04/14 02:52:32;;;;;;;6.18;3.53;;;2.90;60.80;;;;;;5015187;28;20038;-82
2023/04/14 02:55:00;;;;;;;6.30;4.20;;;2.80;60.80;;;;;;4987414;28;20052;-84
2023/04/14 02:57:26;;;;;;;3.58;2.90;;;2.80;61.00;;;;;;4998944;28;20022;-84
2023/04/14 02:59:54;;;;;;;4.47;3.00;;;2.80;61.10;;;;;;5003549;28;20539;-84
2023/04/14 03:02:21;;;;;;;4.65;3.10;;;2.80;61.10;;;;;;5019031;28;20042;-84
2023/04/14 03:04:47;;;;;;;7.40;3.47;;;2.80;60.80;;;;;;5018557;28;20025;-86
2023/04/14 03:07:15;;;;;;;3.83;3.00;;;2.80;60.90;;;;;;5011725;28;20091;-85
2023/04/14 03:09:41;;;;;;;5.93;3.47;;;2.90;61.00;;;;;;5024139;28;20077;-85
2023/04/14 03:12:13;;;;;;;4.15;3.22;;;3.00;60.50;;;;;;5024621;28;20049;-83
2023/04/14 03:14:41;;;;;;;5.97;3.42;;;3.00;60.40;;;;;;5018082;28;20023;-85
2023/04/14 03:17:07;;;;;;;;;;;3.10;60.20;;;;;;5010964;28;20034;-85
2023/04/14 03:19:33;;;;;;;3.78;2.67;;;3.00;60.00;;;;;;4994907;28;19959;-84
2023/04/14 03:22:07;;;;;;;4.88;2.70;;;2.90;60.40;;;;;;5008292;28;20026;-84
2023/04/14 03:24:34;;;;;;;7.50;2.67;;;2.90;60.40;;;;;;5003862;28;20014;-83
2023/04/14 03:27:04;;;;;;;4.43;3.63;;;3.00;60.20;;;;;;5010262;28;20049;-82
2023/04/14 03:29:39;;;;;;;7.75;3.50;;;3.20;60.00;;;;;;5011442;28;20278;-82
2023/04/14 03:32:08;;;;;;;6.15;2.80;;;3.20;59.60;;;;;;4992326;28;20030;-85
2023/04/14 03:34:39;;;;;;;4.38;3.35;;;3.00;59.90;;;;;;4992325;28;20022;-85
2023/04/14 03:37:08;;;;;;;5.25;3.22;;;3.10;59.90;;;;;;5013353;28;20068;-81
2023/04/14 03:39:37;;;;;;;6.47;3.70;;;3.10;59.80;;;;;;4998174;28;20531;-82
2023/04/14 03:42:07;;;;;;;4.95;3.67;;;3.10;60.00;;;;;;5006650;28;20101;-83
2023/04/14 03:44:35;;;;;;;5.93;3.10;;;3.20;59.80;;;;;;4999120;28;20032;-81
2023/04/14 03:47:02;;;;;;;4.10;2.90;;;3.30;59.40;;;;;;4994320;28;20434;-84
2023/04/14 03:49:32;;;;;;;4.80;3.92;;;3.30;58.90;;;;;;5007465;28;20052;-84
2023/04/14 03:52:04;;;;;;;4.82;2.80;;;3.50;58.90;;;;;;5004356;28;20073;-83
2023/04/14 03:54:31;;;;;;;5.60;3.25;;;3.40;58.60;;;;;;5003837;28;20073;-85
2023/04/14 03:56:59;;;;;;;6.55;3.83;;;3.40;58.60;;;;;;4997451;28;20037;-85
2023/04/14 03:59:27;;;;;;;6.03;3.70;;;3.40;58.80;;;;;;5018258;28;20028;-84
2023/04/14 04:01:54;;;;;;;;;;;3.30;59.10;;;;;;5010819;28;20057;-83
2023/04/14 04:04:22;;;;;;;13.00;4.20;;;3.30;58.70;;;;;;5029927;28;19905;-84
2023/04/14 04:06:49;;;;;;;5.30;2.90;;;3.20;59.00;;;;;;4996802;28;20042;-84
2023/04/14 04:09:16;;;;;;;10.80;4.35;;;3.10;58.90;;;;;;5003842;28;20108;-83
2023/04/14 04:11:45;;;;;;;5.07;3.58;;;3.10;59.30;;;;;;5004872;28;20018;-84
2023/04/14 04:14:17;;;;;;;9.25;3.13;;;3.20;59.20;;;;;;5000755;28;20030;-85
2023/04/14 04:16:50;;;;;;;3.92;2.35;;;3.30;58.70;;;;;;5006759;28;20061;-83
2023/04/14 04:19:20;;;;;;;8.00;3.55;;;3.40;58.40;;;;;;5011561;28;20056;-82
2023/04/14 04:21:48;;;;;;;6.47;3.17;;;3.50;58.20;;;;;;5008962;28;20071;-84
2023/04/14 04:24:16;;;;;;;;;;;3.60;58.00;;;;;;4990662;28;20022;-82
2023/04/14 04:26:42;;;;;;;3.50;2.60;;;3.60;57.90;;;;;;5013413;28;19915;-85
2023/04/14 04:29:09;;;;;;;5.28;2.20;;;3.60;57.40;;;;;;4987258;28;20038;-84
2023/04/14 04:31:36;;;;;;;7.80;3.05;;;3.60;57.30;;;;;;5002757;28;20068;-83
2023/04/14 04:34:03;;;;;;;6.40;3.00;;;3.80;57.60;;;;;;4985357;28;20066;-83
2023/04/14 04:36:33;;;;;;;;;;;4.10;56.50;;;;;;4994872;28;20042;-83
2023/04/14 04:38:59;;;;;;;2.95;2.20;;;4.40;55.80;;;;;;5006687;28;19910;-83
2023/04/14 04:41:29;;;;;;;4.75;2.88;;;4.70;55.10;;;;;;4995668;28;20022;-83
2023/04/14 04:43:55;;;;;;;6.40;3.60;;;5.10;54.80;;;;;;4998597;28;20060;-82
2023/04/14 04:46:55;;;;;;;5.75;3.45;;;5.60;53.80;;;;;;5009315;28;20013;-83
2023/04/14 04:49:21;;;;;;;4.53;2.90;;;6.20;52.20;;;;;;5016462;28;20064;-82
2023/04/14 04:51:48;;;;;;;6.25;3.00;;;6.40;50.60;;;;;;4995369;28;20022;-82
2023/04/14 04:54:14;;;;;;;4.22;2.22;;;6.40;50.40;;;;;;5013596;28;20026;-84
2023/04/14 04:56:41;;;;;;;6.45;2.83;;;6.80;49.90;;;;;;5031744;28;20045;-83
2023/04/14 04:59:07;;;;;;;9.18;4.47;;;6.90;49.40;;;;;;5016552;28;20029;-81
2023/04/14 05:01:33;;;;;;;6.05;2.65;;;7.00;49.30;;;;;;4984366;28;20073;-80
2023/04/14 05:03:58;;;;;;;11.05;5.15;;;7.30;48.80;;;;;;4984915;28;20399;-80
2023/04/14 05:06:25;;;;;;;5.78;2.85;;;7.60;49.00;;;;;;5015077;28;20030;-81
2023/04/14 05:08:52;;;;;;;10.85;3.83;;;8.30;46.90;;;;;;5007338;28;20085;-80
2023/04/14 05:11:18;;;;;;;5.70;2.35;;;8.30;45.80;;;;;;5016801;28;20222;-81
2023/04/14 05:13:44;;;;;;;3.08;2.55;;;8.10;46.30;;;;;;5002924;28;20029;-80
2023/04/14 05:16:15;;;;;;;10.45;4.03;;;8.40;46.00;;;;;;5022460;28;20399;-86
2023/04/14 05:18:42;;;;;;;4.15;2.83;;;8.60;45.50;;;;;;5022852;28;20341;-86
2023/04/14 05:21:11;;;;;;;5.15;2.85;;;8.80;44.60;;;;;;5011675;28;20114;-82
2023/04/14 05:23:38;;;;;;;4.47;2.40;;;8.50;44.40;;;;;;5011706;28;20022;-82
2023/04/14 05:26:05;;;;;;;3.75;2.80;;;8.30;44.90;;;;;;4996487;28;20492;-82
2023/04/14 05:28:32;;;;;;;5.07;2.97;;;8.20;45.10;;;;;;4996660;28;20092;-82
2023/04/14 05:30:58;;;;;;;4.33;2.83;;;8.30;44.90;;;;;;4997540;28;20542;-81
2023/04/14 05:33:23;;;;;;;7.78;3.13;;;8.70;44.40;;;;;;4990220;28;20354;-82
2023/04/14 05:35:50;;;;;;;4.78;2.15;;;8.70;44.20;;;;;;5001449;28;20043;-83
2023/04/14 05:38:18;;;;;;;7.25;2.60;;;8.70;43.90;;;;;;5028635;28;20022;-81
2023/04/14 05:40:44;;;;;;;5.05;2.55;;;9.30;43.20;;;;;;5019820;28;20047;-84
2023/04/14 05:43:10;;;;;;;4.13;2.15;;;9.30;42.50;;;;;;5019096;28;20026;-82
2023/04/14 05:45:36;;;;;;;5.30;2.92;;;10.20;41.60;;;;;;5006685;28;20147;-81
2023/04/14 05:48:02;;;;;;;5.30;2.45;;;10.70;40.90;;;;;;5021000;28;20026;-82
2023/04/14 05:50:29;;;;;;;13.20;2.83;;;11.10;39.60;;;;;;4998034;28;20623;-83
2023/04/14 05:52:54;;;;;;;5.07;2.90;;;11.70;39.50;;;;;;5016787;28;20053;-82
2023/04/14 05:55:21;;;;;;;10.43;3.42;;;12.50;38.10;;;;;;5001293;28;20498;-81
2023/04/14 05:57:47;;;;;;;4.47;3.10;;;12.80;37.00;;;;;;5012835;28;20030;-83
2023/04/14 06:00:13;;;;;;;6.75;3.22;;;12.10;37.60;;;;;;5018370;28;20029;-82
2023/04/14 06:02:40;;;;;;;6.97;3.22;;;12.10;38.10;;;;;;5018341;28;20046;-83
2023/04/14 06:05:06;;;;;;;8.02;2.85;;;12.30;37.40;;;;;;5021776;28;20017;-82
2023/04/14 06:07:34;;;;;;;7.28;2.97;;;12.20;37.70;;;;;;5001176;28;20053;-81
2023/04/14 06:10:00;;;;;;;6.95;3.30;;;13.10;36.80;;;;;;5031664;28;20048;-82
2023/04/14 06:12:27;;;;;;;6.32;2.88;;;13.20;35.70;;;;;;5014187;28;20029;-83
2023/04/14 06:14:53;;;;;;;5.07;2.40;;;13.40;35.60;;;;;;5001150;28;20032;-81
2023/04/14 06:17:20;;;;;;;8.10;2.70;;;13.40;34.90;;;;;;5020140;28;20036;-82
2023/04/14 06:19:47;;;;;;;8.73;3.00;;;13.60;35.60;;;;;;5013014;28;20033;-82
2023/04/14 06:22:17;;;;;;;4.25;2.45;;;13.20;34.50;;;;;;5021041;28;20026;-83
2023/04/14 06:24:46;;;;;;;10.10;2.70;;;13.10;35.50;;;;;;5031694;28;20090;-82
2023/04/14 06:27:13;;;;;;;4.43;2.38;;;13.30;35.20;;;;;;5009011;28;20030;-84
2023/04/14 06:29:39;;;;;;;6.10;2.58;;;14.10;34.80;;;;;;5017496;28;20077;-83
2023/04/14 06:32:05;;;;;;;16.85;3.03;;;14.30;33.30;;;;;;5019082;28;20061;-83
2023/04/14 06:34:31;;;;;;;6.47;1.60;;;14.60;33.40;;;;;;5021292;28;20022;-83
2023/04/14 06:36:57;;;;;;;9.23;2.80;;;15.30;33.00;;;;;;5017520;28;20479;-83
2023/04/14 06:39:24;;;;;;;9.65;2.78;;;14.40;32.40;;;;;;5025481;28;20018;-84
2023/04/14 06:41:50;;;;;;;5.40;1.50;;;14.60;33.30;;;;;;5026027;28;20029;-83
2023/04/14 06:44:16;;;;;;;8.20;3.28;;;14.20;32.10;;;;;;5012159;28;20015;-85
2023/04/14 06:46:42;;;;;;;7.32;3.47;;;13.90;33.60;;;;;;4999144;28;20068;-83
2023/04/14 06:49:08;;;;;;;5.78;3.00;;;14.50;32.90;;;;;;5017274;28;20022;-83
2023/04/14 06:51:34;;;;;;;19.58;3.80;;;14.90;32.90;;;;;;5000118;28;20034;-83
2023/04/14 06:54:00;;;;;;;9.13;2.80;;;;;;;;;;5022102;28;20485;-84
2023/04/14 06:56:29;;;;;;;5.25;3.38;;;16.40;30.50;;;;;;5002961;28;20057;-83
2023/04/14 06:58:55;;;;;;;3.70;2.78;;;16.10;30.40;;;;;;5002776;28;20077;-84
2023/04/14 07:01:21;;;;;;;11.65;3.97;;;14.80;31.50;;;;;;4999111;28;20053;-83
2023/04/14 07:03:47;;;;;;;10.18;3.22;;;14.40;32.40;;;;;;5016789;28;20022;-86
2023/04/14 07:06:15;;;;;;;14.65;3.83;;;15.00;31.70;;;;;;5016588;28;20022;-83
2023/04/14 07:08:42;;;;;;;10.32;2.63;;;15.30;31.70;;;;;;5017527;28;20036;-83
2023/04/14 07:11:09;;;;;;;11.70;3.60;;;16.40;30.50;;;;;;5009573;28;20022;-83
2023/04/14 07:13:36;;;;;;;;;;;16.40;30.20;;;;;;5016687;28;20118;-84
2023/04/14 07:16:02;;;;;;;6.20;2.90;;;16.20;30.90;;;;;;5016729;28;19936;-83
2023/04/14 07:18:29;;;;;;;7.07;2.10;;;15.60;30.20;;;;;;4999024;28;20026;-84
2023/04/14 07:20:56;;;;;;;9.68;3.10;;;15.50;31.20;;;;;;5016986;28;20513;-85
2023/04/14 07:23:24;;;;;;;7.72;2.70;;;16.20;30.40;;;;;;5017250;28;20041;-83
2023/04/14 07:25:56;;;;;;;8.18;3.30;;;16.20;30.00;;;;;;5017021;28;20025;-83
2023/04/14 07:28:22;;;;;;;10.68;3.58;;;16.80;29.90;;;;;;4999767;28;20022;-84
2023/04/14 07:30:49;;;;;;;3.05;2.22;;;16.10;29.80;;;;;;4999116;28;20038;-84
2023/04/14 07:33:20;;;;;;;6.47;3.00;;;16.00;29.70;;;;;;5016851;28;20026;-85
2023/04/14 07:35:51;;;;;;;6.50;2.35;;;15.80;30.40;;;;;;5002130;28;20034;-85
2023/04/14 07:38:17;;;;;;;3.33;2.53;;;16.00;30.00;;;;;;5026892;28;20023;-84
2023/04/14 07:40:46;;;;;;;4.90;2.22;;;15.70;29.80;;;;;;5009497;28;20026;-83
2023/04/14 07:43:12;;;;;;;6.22;1.75;;;15.20;30.70;;;;;;5020189;28;20022;-83
2023/04/14 07:45:38;;;;;;;2.90;1.90;;;15.40;30.40;;;;;;5034848;28;20131;-84
2023/04/14 07:48:04;;;;;;;3.97;2.35;;;15.40;29.90;;;;;;5010251;28;20040;-84
2023/04/14 07:50:30;;;;;;;7.88;2.42;;;15.30;30.70;;;;;;5000907;28;20033;-84
2023/04/14 07:52:58;;;;;;;9.80;2.47;;;16.40;29.90;;;;;;5001406;28;20060;-83
2023/04/14 07:55:24;;;;;;;3.20;1.70;;;16.80;28.80;;;;;;5000987;28;20112;-85
2023/04/14 07:57:50;;;;;;;4.18;2.20;;;16.40;29.10;;;;;;5001242;28;20030;-83
2023/04/14 08:00:16;;;;;;;5.25;2.60;;;15.40;30.30;;;;;;5019952;28;20018;-83
2023/04/14 08:02:42;;;;;;;9.27;2.40;;;14.90;30.50;;;;;;5004186;28;20064;-81
2023/04/14 08:05:08;;;;;;;6.07;2.30;;;15.60;30.40;;;;;;5008527;28;20022;-83
2023/04/14 08:07:34;;;;;;;7.90;2.00;;;16.50;29.50;;;;;;5000304;28;20027;-84
2023/04/14 08:10:00;;;;;;;5.97;3.05;;;17.70;29.10;;;;;;5022278;28;20107;-85
2023/04/14 08:12:26;;;;;;;5.30;2.55;;;19.10;28.20;;;;;;5002574;28;20021;-84
2023/04/14 08:14:53;;;;;;;5.55;2.10;;;20.10;31.60;;;;;;5032655;28;20018;-83
2023/04/14 08:17:19;;;;;;;4.93;2.25;;;;;;;;;;5013673;28;20040;-83
2023/04/14 08:19:46;;;;;;;7.17;1.93;;;19.90;26.60;;;;;;5021499;28;20025;-85
2023/04/14 08:22:11;;;;;;;5.37;2.57;;;19.70;26.80;;;;;;5024428;28;20351;-85
2023/04/14 08:24:37;;;;;;;5.47;2.13;;;19.00;27.00;;;;;;5037286;28;20026;-83
2023/04/14 08:27:03;;;;;;;6.68;1.88;;;19.10;27.30;;;;;;5009662;28;20029;-83
2023/04/14 08:29:29;;;;;;;5.97;2.40;;;19.10;27.30;;;;;;5005548;28;20026;-83
2023/04/14 08:31:55;;;;;;;10.23;2.67;;;19.40;26.80;;;;;;5035517;28;20021;-84
2023/04/14 08:34:21;;;;;;;7.75;2.72;;;19.10;27.00;;;;;;5009190;28;20014;-85
2023/04/14 08:36:47;;;;;;;3.83;1.77;;;18.60;27.30;;;;;;5023731;28;20065;-84
2023/04/14 08:39:13;;;;;;;11.30;3.20;;;18.20;27.50;;;;;;5003116;28;20032;-86
2023/04/14 08:41:40;;;;;;;10.43;3.60;;;18.20;27.80;;;;;;5002712;28;20053;-87
2023/04/14 08:44:07;;;;;;;4.97;2.40;;;18.50;27.40;;;;;;5029111;28;20025;-85
2023/04/14 08:46:34;;;;;;;3.88;2.58;;;19.00;27.30;;;;;;5019508;28;20274;-85
2023/04/14 08:49:04;;;;;;;;;;;19.30;27.00;;;;;;5011671;28;20047;-85
2023/04/14 08:51:37;;;;;;;7.57;3.03;;;19.50;27.00;;;;;;5016278;28;19906;-86
2023/04/14 08:54:07;;;;;;;7.07;3.20;;;19.40;27.90;;;;;;5029683;28;20029;-86
2023/04/14 08:56:37;;;;;;;11.27;2.67;;;20.20;26.70;;;;;;5005779;28;20041;-86
2023/04/14 08:59:07;;;;;;;9.05;2.83;;;19.70;26.40;;;;;;5004507;28;20022;-86
2023/04/14 09:01:34;;;;;;;4.95;2.53;;;19.50;26.60;;;;;;5046657;28;20104;-85
2023/04/14 09:04:03;;;;;;;4.65;2.50;;;19.80;26.70;;;;;;5002052;28;20389;-85
2023/04/14 09:06:30;;;;;;;5.05;2.20;;;19.80;26.60;;;;;;5021209;28;20056;-85
2023/04/14 09:08:59;;;;;;;6.82;2.53;;;18.80;26.60;;;;;;5015970;28;20534;-86
2023/04/14 09:11:25;;;;;;;6.53;2.63;;;17.60;27.70;;;;;;5013567;28;20034;-85
2023/04/14 09:13:52;;;;;;;6.88;2.53;;;17.20;28.10;;;;;;5020758;28;20025;-86
2023/04/14 09:16:18;;;;;;;8.32;3.85;;;18.10;27.90;;;;;;5020067;28;20030;-85
2023/04/14 09:18:45;;;;;;;6.05;2.65;;;18.10;27.40;;;;;;5013741;28;20034;-86
2023/04/14 09:21:11;;;;;;;6.17;2.77;;;18.00;27.60;;;;;;5008922;28;20014;-85
2023/04/14 09:23:40;;;;;;;9.63;3.13;;;18.50;27.70;;;;;;5021730;28;20117;-85
2023/04/14 09:26:09;;;;;;;3.33;2.33;;;;;;;;;;4995569;28;20022;-84
2023/04/14 09:28:36;;;;;;;5.68;3.08;;;21.00;26.00;;;;;;5012931;28;20021;-85
2023/04/14 09:31:03;;;;;;;11.50;2.03;;;20.40;26.30;;;;;;5005577;28;20030;-86
2023/04/14 09:33:30;;;;;;;6.95;2.15;;;20.70;26.40;;;;;;5036400;28;20052;-85
2023/04/14 09:35:56;;;;;;;5.65;2.58;;;20.80;25.90;;;;;;5021536;28;20045;-86
2023/04/14 09:38:35;;;;;;;3.80;2.08;;;20.80;25.90;;;;;;5018204;28;20065;-85
2023/04/14 09:41:03;;;;;;;7.15;2.70;;;20.60;26.20;;;;;;5018100;28;20053;-86
2023/04/14 09:43:29;;;;;;;4.22;2.10;;;19.80;26.30;;;;;;5005139;28;20026;-85
2023/04/14 09:45:56;;;;;;;4.72;1.70;;;20.00;26.40;;;;;;5003610;28;20029;-84
2023/04/14 09:48:23;;;;;;;4.68;2.00;;;19.10;26.30;;;;;;5001295;28;20032;-86
2023/04/14 09:50:59;;;;;;;7.28;2.45;;;18.80;26.50;;;;;;5004808;28;20032;-85
2023/04/14 09:53:30;;;;;;;4.47;2.40;;;18.40;26.70;;;;;;5006841;28;20379;-83
2023/04/14 09:55:58;;;;;;;6.78;2.65;;;18.30;26.90;;;;;;5042294;28;20041;-86
2023/04/14 09:58:35;;;;;;;8.15;3.33;;;19.20;27.20;;;;;;5012484;28;20126;-85
2023/04/14 10:01:09;;;;;;;7.97;2.80;;;19.10;26.80;;;;;;5032740;28;20061;-85
2023/04/14 10:03:38;;;;;;;2.90;1.77;;;19.80;26.80;;;;;;5020254;28;20487;-86
2023/04/14 10:06:23;;;;;;;7.30;2.92;;;20.30;26.20;;;;;;5035664;28;20033;-84
2023/04/14 10:08:51;;;;;;;5.28;2.15;;;19.80;26.80;;;;;;5017197;28;20025;-85
2023/04/14 10:11:20;;;;;;;5.95;2.63;;;19.30;26.70;;;;;;5032882;28;20016;-85
2023/04/14 10:13:55;;;;;;;2.60;1.50;;;19.40;26.90;;;;;;5031025;28;20021;-85
2023/04/14 10:16:22;;;;;;;8.82;2.40;;;19.40;26.20;;;;;;5042863;28;20037;-86
2023/04/14 10:18:48;;;;;;;6.68;2.17;;;19.80;26.20;;;;;;5024175;28;20026;-87
2023/04/14 10:21:15;;;;;;;3.38;1.90;;;20.70;26.50;;;;;;5019505;28;20152;-85
2023/04/14 10:23:43;;;;;;;7.07;3.63;;;20.20;25.50;;;;;;5001502;28;20018;-85
2023/04/14 10:26:11;;;;;;;11.52;6.47;;;18.20;26.50;;;;;;4987524;28;20395;-85
2023/04/14 10:28:42;;;;;;;7.85;2.58;;;16.00;28.00;;;;;;5018532;28;20080;-84
2023/04/14 10:31:14;;;;;;;8.07;3.38;;;14.30;29.10;;;;;;5031980;28;20022;-87
2023/04/14 10:33:41;;;;;;;6.55;2.28;;;;;;;;;;5032087;28;20028;-86
2023/04/14 10:36:08;;;;;;;5.13;2.35;;;12.30;30.70;;;;;;5025801;28;20084;-85
2023/04/14 10:38:42;;;;;;;4.60;2.58;;;11.70;31.90;;;;;;5020573;28;20057;-84
2023/04/14 10:41:10;;;;;;;8.88;3.70;;;11.30;32.60;;;;;;5005108;28;20392;-84
2023/04/14 10:43:37;;;;;;;4.90;2.35;;;11.00;33.10;;;;;;5019819;28;20490;-86
2023/04/14 10:46:05;;;;;;;10.20;2.67;;;10.60;33.50;;;;;;5004093;28;20105;-84
2023/04/14 10:48:33;;;;;;;6.43;2.22;;;10.30;34.00;;;;;;5025300;28;20021;-85
2023/04/14 10:51:01;;;;;;;4.13;1.90;;;10.00;34.10;;;;;;5028126;28;20045;-85
2023/04/14 10:53:32;;;;;;;;;;;10.00;34.50;;;;;;5015979;28;20026;-85
2023/04/14 10:56:02;;;;;;;7.85;2.25;;;10.00;34.10;;;;;;5018103;28;19918;-84
2023/04/14 10:58:28;;;;;;;5.85;2.10;;;10.00;34.20;;;;;;5017895;28;20100;-85
2023/04/14 11:00:56;;;;;;;5.75;1.83;;;10.10;34.00;;;;;;5018810;28;20084;-84
2023/04/14 11:03:22;;;;;;;3.80;1.85;;;10.00;34.00;;;;;;5004734;28;20091;-85
2023/04/14 11:05:50;;;;;;;8.20;2.33;;;9.80;34.10;;;;;;5000693;28;20030;-84
2023/04/14 11:08:16;;;;;;;;;;;9.80;34.50;;;;;;5018337;28;20014;-85
2023/04/14 11:10:49;;;;;;;2.63;1.65;;;9.80;34.40;;;;;;5014673;28;20055;-85
2023/04/14 11:13:16;;;;;;;8.82;2.33;;;9.70;34.50;;;;;;5010969;28;20029;-84
2023/04/14 11:16:08;;;;;;;3.78;1.60;;;9.80;34.80;;;;;;4989921;28;20073;-84
2023/04/14 11:18:41;;;;;;;7.97;2.30;;;9.70;34.00;;;;;;5016750;28;20113;-83
2023/04/14 11:21:15;;;;;;;1.77;1.48;;;9.60;34.20;;;;;;5024369;28;20025;-86
2023/04/14 11:23:42;;;;;;;7.28;2.80;;;9.70;34.40;;;;;;5032572;28;20036;-84
2023/04/14 11:26:14;;;;;;;2.83;1.80;;;9.70;34.40;;;;;;5013584;28;20030;-84
2023/04/14 11:28:43;;;;;;;6.25;2.25;;;9.60;33.80;;;;;;5023350;28;20060;-83
2023/04/14 11:31:10;;;;;;;7.85;2.75;;;9.40;34.20;;;;;;5018581;28;20014;-82
2023/04/14 11:33:37;;;;;;;;;;;9.50;34.20;;;;;;4999568;28;20379;-84
2023/04/14 11:36:05;;;;;;;4.50;2.00;;;9.50;34.20;;;;;;5017244;28;19972;-84
2023/04/14 11:38:34;;;;;;;7.45;2.45;;;9.50;34.60;;;;;;5018630;28;20392;-84
2023/04/14 11:41:01;;;;;;;4.22;2.63;;;9.40;34.40;;;;;;5012618;28;20030;-84
2023/04/14 11:43:30;;;;;;;5.25;2.13;;;9.50;34.40;;;;;;4987626;28;20034;-83
2023/04/14 11:45:57;;;;;;;6.47;2.05;;;9.60;34.10;;;;;;5013454;28;20026;-83
2023/04/14 11:48:23;;;;;;;3.85;2.85;;;9.60;32.90;;;;;;5000797;28;20032;-83
2023/04/14 11:50:49;;;;;;;15.32;3.05;;;9.70;33.10;;;;;;5000751;28;20061;-82
2023/04/14 11:53:16;;;;;;;2.72;2.13;;;9.70;33.70;;;;;;5037131;28;20052;-83
2023/04/14 11:55:46;;;;;;;8.32;2.60;;;9.70;33.30;;;;;;5029648;28;20120;-84
2023/04/14 11:58:14;;;;;;;4.53;1.98;;;9.60;33.40;;;;;;5026191;28;20041;-83
2023/04/14 12:00:40;;;;;;;;;;;9.70;33.40;;;;;;5009890;28;20045;-83
2023/04/14 12:03:07;;;;;;;3.00;1.50;;;9.70;33.40;;;;;;5022282;28;20329;-84
2023/04/14 12:05:34;;;;;;;7.95;2.38;;;9.70;32.50;;;;;;5015887;28;20037;-83
2023/04/14 12:08:03;;;;;;;4.18;2.00;;;9.60;32.60;;;;;;5020374;28;20041;-83
2023/04/14 12:10:29;;;;;;;4.90;2.50;;;9.60;32.50;;;;;;5023705;28;20025;-83
2023/04/14 12:13:07;;;;;;;4.13;2.42;;;9.50;32.50;;;;;;5026530;28;20025;-83
2023/04/14 12:15:35;;;;;;;6.13;3.25;;;9.50;32.90;;;;;;5024229;28;20037;-84
2023/04/14 12:18:04;;;;;;;7.72;2.45;;;9.60;33.00;;;;;;5003210;28;20062;-84
2023/04/14 12:20:50;;;;;;;4.07;2.65;;;9.60;32.90;;;;;;5023083;28;20029;-84
2023/04/14 12:23:16;;;;;;;2.88;1.77;;;9.70;33.10;;;;;;5002708;28;20048;-84
2023/04/14 12:25:42;;;;;;;11.60;2.47;;;9.70;32.70;;;;;;5023481;28;20026;-84
2023/04/14 12:28:08;;;;;;;10.35;2.90;;;9.70;32.80;;;;;;5003028;28;20025;-85
2023/04/14 12:30:36;;;;;;;8.90;3.35;;;9.70;32.80;;;;;;5002293;28;20033;-84
2023/04/14 12:33:10;;;;;;;4.82;2.08;;;9.70;32.40;;;;;;5016302;28;20028;-84
2023/04/14 12:35:36;;;;;;;7.20;2.72;;;9.70;32.40;;;;;;5009783;28;20030;-82
2023/04/14 12:38:11;;;;;;;3.85;2.28;;;9.70;32.30;;;;;;5003162;28;20037;-81
2023/04/14 12:40:39;;;;;;;5.82;2.30;;;9.70;32.30;;;;;;5020968;28;20022;-84
2023/04/14 12:43:05;;;;;;;6.80;2.10;;;9.60;32.60;;;;;;5031229;28;20068;-82
2023/04/14 12:45:47;;;;;;;7.03;3.08;;;9.70;32.50;;;;;;5020213;28;20017;-82
2023/04/14 12:48:16;;;;;;;8.05;2.63;;;9.60;32.70;;;;;;5003182;28;20025;-82
2023/04/14 12:50:43;;;;;;;10.75;2.30;;;9.60;32.40;;;;;;5020520;28;20095;-83
2023/04/14 12:53:25;;;;;;;6.25;2.78;;;9.70;32.40;;;;;;5019246;28;20026;-80
2023/04/14 12:56:15;;;;;;;5.18;2.80;;;9.70;32.20;;;;;;4992354;28;20048;-84
2023/04/14 12:58:45;;;;;;;11.52;3.17;;;9.70;31.60;;;;;;5003861;28;20026;-82
2023/04/14 13:01:12;;;;;;;8.02;3.15;;;9.50;31.80;;;;;;5018818;28;20034;-84
2023/04/14 13:03:44;;;;;;;5.70;2.50;;;9.50;32.00;;;;;;5033989;28;20094;-83